Time;durP1;ratioP1;P1;durP2;ratioP2;P2;SDS_P1;SDS_P2;PMS_P1;PMS_P2;Temp;Humidity;BMP_temperature;BMP_pressure;BME280_temperature;BME280_humidity;BME280_pressure;Samples;Min_cycle;Max_cycle;Signal;HPM_P1;HPM_P2
2021/01/12 07:04:29;;;;;;;95.72;36.88;;;;;;;;;;5106622;27;20911;-73
2021/01/12 07:06:56;;;;;;;111.40;38.72;;;;;;;;;;5092947;28;20031;-73
2021/01/12 07:09:22;;;;;;;112.50;40.33;;;;;;;;;;5082433;28;20027;-74
2021/01/12 07:11:48;;;;;;;105.28;39.38;;;;;;;;;;5082024;28;20021;-74
2021/01/12 07:14:23;;;;;;;92.18;36.47;;;;;;;;;;5107192;28;20099;-74
2021/01/12 07:16:49;;;;;;;99.47;37.92;;;;;;;;;;5092115;28;20376;-74
2021/01/12 07:19:16;;;;;;;102.80;40.38;;;;;;;;;;5096389;28;20036;-72
2021/01/12 07:21:41;;;;;;;109.68;42.30;;;;;;;;;;5107452;28;20051;-72
2021/01/12 07:24:07;;;;;;;105.55;39.70;;;;;;;;;;5087970;28;20066;-75
2021/01/12 07:26:33;;;;;;;107.18;40.33;;;;;;;;;;5104789;28;20019;-72
2021/01/12 07:29:10;;;;;;;113.85;42.72;;;;;;;;;;5097797;28;20544;-71
2021/01/12 07:31:36;;;;;;;101.82;39.40;;;;;;;;;;5098726;28;20032;-72
2021/01/12 07:34:01;;;;;;;103.13;41.97;;;;;;;;;;5092467;28;20066;-72
2021/01/12 07:36:27;;;;;;;101.00;42.35;;;;;;;;;;5102479;28;20016;-70
2021/01/12 07:38:53;;;;;;;117.22;44.75;;;;;;;;;;5097993;28;20015;-72
2021/01/12 07:46:34;;;;;;;114.50;42.10;;;;;;;;;;5075222;27;20415;-71
2021/01/12 07:49:00;;;;;;;103.13;40.08;;;;;;;;;;5092514;28;20031;-73
2021/01/12 07:51:26;;;;;;;106.60;41.67;;;;;;;;;;5101634;28;20466;-74
2021/01/12 07:53:52;;;;;;;89.93;39.78;;;;;;;;;;5056744;28;20111;-71
2021/01/12 07:56:18;;;;;;;100.03;40.70;;;;;;;;;;5067646;28;20489;-69
2021/01/12 07:58:44;;;;;;;104.80;43.17;;;;;;;;;;5035974;28;20440;-69
2021/01/12 08:01:09;;;;;;;106.18;43.30;;;;;;;;;;5052049;28;20017;-70
2021/01/12 08:03:36;;;;;;;123.65;43.95;;;;;;;;;;5100595;28;20020;-70
2021/01/12 08:06:02;;;;;;;107.38;45.17;;;;;;;;;;5056777;28;20078;-71
2021/01/12 08:08:28;;;;;;;104.20;40.83;;;;;;;;;;5066953;28;20032;-72
2021/01/12 08:10:54;;;;;;;105.15;44.38;;;;;;;;;;5063447;28;20012;-71
2021/01/12 08:13:19;;;;;;;103.60;42.45;;;;;;;;;;5050516;28;20056;-69
2021/01/12 08:15:45;;;;;;;92.72;41.95;;;;;;;;;;5047622;28;20040;-68
2021/01/12 08:18:20;;;;;;;103.35;42.80;;;;;;;;;;5047239;28;20080;-69
2021/01/12 08:20:46;;;;;;;94.30;40.95;;;;;;;;;;5057444;28;20040;-69
2021/01/12 08:23:13;;;;;;;110.35;43.20;;;;;;;;;;5053858;28;20009;-69
2021/01/12 08:25:39;;;;;;;118.90;50.13;;;;;;;;;;5063454;28;20098;-68
2021/01/12 08:28:07;;;;;;;114.50;48.97;;;;;;;;;;5050392;28;20028;-68
2021/01/12 08:30:33;;;;;;;112.85;47.00;;;;;;;;;;5058595;28;20028;-68
2021/01/12 08:33:08;;;;;;;110.10;47.60;;;;;;;;;;5060963;28;20022;-69
2021/01/12 08:35:34;;;;;;;110.20;48.22;;;;;;;;;;5058984;28;20012;-69
2021/01/12 08:38:00;;;;;;;104.00;47.38;;;;;;;;;;5058991;28;20117;-70
2021/01/12 08:40:26;;;;;;;107.35;45.35;;;;;;;;;;5058487;28;20028;-70
2021/01/12 08:42:52;;;;;;;100.93;46.30;;;;;;;;;;5058591;28;20474;-71
2021/01/12 08:45:18;;;;;;;98.03;44.72;;;;;;;;;;5060824;28;20051;-69
2021/01/12 08:47:45;;;;;;;94.63;44.45;;;;;;;;;;5053730;28;20033;-70
2021/01/12 08:50:11;;;;;;;87.65;42.45;;;;;;;;;;5053016;28;20056;-68
2021/01/12 08:52:38;;;;;;;95.40;45.45;;;;;;;;;;5059697;28;20477;-68
2021/01/12 08:55:14;;;;;;;105.40;46.40;;;;;;;;;;5058222;28;20025;-69
2021/01/12 08:57:39;;;;;;;119.35;53.30;;;;;;;;;;5037311;28;20035;-69
2021/01/12 09:00:14;;;;;;;89.20;42.95;;;;;;;;;;5032851;28;20017;-70
2021/01/12 09:02:39;;;;;;;90.60;42.25;;;;;;;;;;5042605;28;20056;-69
2021/01/12 09:05:07;;;;;;;97.53;44.42;;;;;;;;;;5040789;28;20093;-69
2021/01/12 09:07:33;;;;;;;99.53;46.67;;;;;;;;;;5049912;28;20056;-71
2021/01/12 09:09:58;;;;;;;101.57;44.72;;;;;;;;;;5037719;28;20070;-72
2021/01/12 09:12:24;;;;;;;85.28;43.85;;;;;;;;;;5030579;28;20409;-73
2021/01/12 09:14:50;;;;;;;97.05;44.00;;;;;;;;;;5025772;28;20130;-73
2021/01/12 09:17:16;;;;;;;88.38;45.15;;;;;;;;;;5009252;28;20104;-71
2021/01/12 09:19:41;;;;;;;81.00;41.22;;;;;;;;;;5024629;28;20466;-70
2021/01/12 09:22:08;;;;;;;84.30;43.33;;;;;;;;;;5028669;28;20013;-71
2021/01/12 09:24:33;;;;;;;91.68;43.33;;;;;;;;;;5026878;28;20032;-72
2021/01/12 09:26:59;;;;;;;99.30;48.25;;;;;;;;;;5025900;28;20013;-72
2021/01/12 09:29:26;;;;;;;133.55;48.15;;;;;;;;;;5026340;28;20104;-72
2021/01/12 09:31:52;;;;;;;98.22;45.85;;;;;;;;;;5034972;28;20026;-71
2021/01/12 09:34:19;;;;;;;90.95;42.92;;;;;;;;;;5051163;28;20017;-70
2021/01/12 09:36:44;;;;;;;114.82;41.17;;;;;;;;;;5035104;28;20453;-72
2021/01/12 09:39:14;;;;;;;87.22;42.50;;;;;;;;;;5031761;28;20096;-71
2021/01/12 09:41:42;;;;;;;83.70;41.20;;;;;;;;;;5051173;28;20048;-71
2021/01/12 09:44:08;;;;;;;83.00;40.78;;;;;;;;;;5036358;28;20064;-72
2021/01/12 09:46:34;;;;;;;88.72;41.20;;;;;;;;;;5040352;28;20053;-72
2021/01/12 09:49:00;;;;;;;91.80;42.50;;;;;;;;;;5044200;28;20100;-72
2021/01/12 09:51:26;;;;;;;87.35;39.92;;;;;;;;;;5046811;28;20477;-73
2021/01/12 09:53:51;;;;;;;85.70;42.65;;;;;;;;;;5050546;28;20534;-71
2021/01/12 09:56:18;;;;;;;89.95;44.33;;;;;;;;;;5037671;28;20026;-72
2021/01/12 09:58:44;;;;;;;85.68;42.80;;;;;;;;;;5051752;28;20033;-73
2021/01/12 10:01:09;;;;;;;90.03;43.10;;;;;;;;;;5039665;28;20112;-72
2021/01/12 10:03:34;;;;;;;82.22;39.53;;;;;;;;;;5002031;28;20033;-73
2021/01/12 10:06:00;;;;;;;84.88;41.97;;;;;;;;;;5051521;28;20041;-72
2021/01/12 10:08:25;;;;;;;77.30;38.38;;;;;;;;;;5050856;28;20808;-75
2021/01/12 10:10:52;;;;;;;76.20;37.15;;;;;;;;;;5043248;28;20021;-74
2021/01/12 10:13:18;;;;;;;77.97;38.15;;;;;;;;;;5045030;28;20017;-74
2021/01/12 10:15:43;;;;;;;73.25;35.97;;;;;;;;;;5036507;28;20044;-72
2021/01/12 10:18:09;;;;;;;81.50;40.03;;;;;;;;;;5037969;28;20017;-71
2021/01/12 10:20:34;;;;;;;74.78;38.13;;;;;;;;;;5052190;28;20029;-73
2021/01/12 10:22:59;;;;;;;75.88;36.97;;;;;;;;;;5040587;28;20021;-73
2021/01/12 10:25:25;;;;;;;64.40;32.92;;;;;;;;;;5047484;28;20437;-74
2021/01/12 10:27:51;;;;;;;69.10;34.67;;;;;;;;;;5018002;28;20017;-74
2021/01/12 10:30:16;;;;;;;74.22;37.75;;;;;;;;;;5047619;28;20028;-74
2021/01/12 10:32:46;;;;;;;74.13;39.85;;;;;;;;;;5024033;28;20025;-74
2021/01/12 10:35:12;;;;;;;63.92;36.65;;;;;;;;;;5039346;28;20027;-72
2021/01/12 10:37:37;;;;;;;62.58;32.75;;;;;;;;;;5049231;28;20759;-72
2021/01/12 10:40:03;;;;;;;63.58;34.67;;;;;;;;;;5013794;28;20075;-76
2021/01/12 10:42:29;;;;;;;67.72;35.17;;;;;;;;;;5013914;28;20026;-74
2021/01/12 10:44:54;;;;;;;64.07;34.42;;;;;;;;;;5017171;28;20046;-71
2021/01/12 10:47:20;;;;;;;70.25;34.65;;;;;;;;;;5032075;28;20437;-73
2021/01/12 10:49:45;;;;;;;62.63;30.92;;;;;;;;;;5042047;28;20413;-72
2021/01/12 10:52:10;;;;;;;71.68;32.45;;;;;;;;;;5048787;28;20051;-70
2021/01/12 10:54:36;;;;;;;60.80;31.25;;;;;;;;;;5042132;28;20028;-69
2021/01/12 10:57:02;;;;;;;56.85;30.52;;;;;;;;;;5029428;28;20371;-68
2021/01/12 10:59:28;;;;;;;56.53;31.02;;;;;;;;;;5030788;28;20561;-68
2021/01/12 11:01:54;;;;;;;56.42;30.42;;;;;;;;;;5031523;28;20026;-68
2021/01/12 11:04:20;;;;;;;59.35;31.88;;;;;;;;;;5031185;28;20422;-69
2021/01/12 11:06:46;;;;;;;55.38;30.45;;;;;;;;;;5030694;28;20029;-68
2021/01/12 11:09:12;;;;;;;64.25;33.72;;;;;;;;;;5032272;28;20110;-67
2021/01/12 11:11:37;;;;;;;54.20;30.25;;;;;;;;;;5032036;28;20490;-68
2021/01/12 11:14:05;;;;;;;60.10;33.45;;;;;;;;;;5032220;28;20032;-68
2021/01/12 11:16:34;;;;;;;73.60;34.03;;;;;;;;;;5032186;28;20152;-68
2021/01/12 11:19:00;;;;;;;58.65;31.95;;;;;;;;;;5031330;28;20025;-68
2021/01/12 11:21:25;;;;;;;63.03;33.15;;;;;;;;;;5032231;28;20018;-67
2021/01/12 11:23:51;;;;;;;66.13;32.97;;;;;;;;;;5032307;28;20014;-67
2021/01/12 11:26:16;;;;;;;62.78;32.00;;;;;;;;;;5013911;28;20030;-69
2021/01/12 11:28:41;;;;;;;64.78;31.40;;;;;;;;;;5039170;28;20086;-68
2021/01/12 11:31:07;;;;;;;63.40;32.30;;;;;;;;;;5047219;28;20120;-68
2021/01/12 11:33:32;;;;;;;60.58;29.25;;;;;;;;;;5044078;28;20058;-69
2021/01/12 11:35:57;;;;;;;54.55;28.70;;;;;;;;;;5027017;28;20013;-68
2021/01/12 11:38:24;;;;;;;55.50;29.00;;;;;;;;;;5040182;28;20072;-71
2021/01/12 11:40:50;;;;;;;60.78;27.65;;;;;;;;;;5043059;28;20088;-67
2021/01/12 11:43:15;;;;;;;58.88;27.23;;;;;;;;;;5036048;28;20024;-69
2021/01/12 11:45:41;;;;;;;51.35;26.58;;;;;;;;;;5030709;28;20136;-68
2021/01/12 11:48:06;;;;;;;58.35;27.60;;;;;;;;;;5041985;28;20030;-67
2021/01/12 11:50:32;;;;;;;61.70;26.75;;;;;;;;;;5041414;28;20019;-68
2021/01/12 11:52:57;;;;;;;59.58;27.90;;;;;;;;;;5052737;28;20034;-67
2021/01/12 11:55:23;;;;;;;55.33;28.00;;;;;;;;;;5047897;28;20025;-68
2021/01/12 11:57:48;;;;;;;62.40;30.50;;;;;;;;;;5036874;28;20544;-68
2021/01/12 12:00:14;;;;;;;99.13;30.20;;;;;;;;;;5036261;28;20013;-68
2021/01/12 12:02:39;;;;;;;70.25;31.23;;;;;;;;;;5034296;28;20075;-67
2021/01/12 12:05:05;;;;;;;72.82;32.28;;;;;;;;;;5039048;28;20079;-67
2021/01/12 12:07:33;;;;;;;60.45;29.65;;;;;;;;;;5037615;28;20140;-68
2021/01/12 12:10:00;;;;;;;79.05;32.08;;;;;;;;;;5034740;28;20377;-68
2021/01/12 12:12:25;;;;;;;63.08;30.50;;;;;;;;;;5039020;28;20067;-68
2021/01/12 12:14:51;;;;;;;64.78;29.77;;;;;;;;;;5039486;28;20025;-67
2021/01/12 12:17:16;;;;;;;66.68;30.45;;;;;;;;;;5044244;28;20060;-68
2021/01/12 12:19:41;;;;;;;64.63;29.80;;;;;;;;;;5040852;28;20462;-68
2021/01/12 12:22:07;;;;;;;60.40;28.98;;;;;;;;;;5046573;28;20021;-69
2021/01/12 12:24:32;;;;;;;66.70;30.15;;;;;;;;;;5038316;28;20079;-71
2021/01/12 12:27:00;;;;;;;55.72;27.27;;;;;;;;;;5041641;28;20036;-71
2021/01/12 12:29:25;;;;;;;61.03;28.75;;;;;;;;;;5033993;28;20029;-72
2021/01/12 12:31:53;;;;;;;50.90;27.08;;;;;;;;;;5044221;28;20014;-71
2021/01/12 12:34:19;;;;;;;57.17;28.58;;;;;;;;;;5024776;28;20487;-70
2021/01/12 12:36:44;;;;;;;50.38;25.52;;;;;;;;;;5048269;28;20087;-71
2021/01/12 12:39:10;;;;;;;55.85;26.13;;;;;;;;;;5038445;28;20040;-69
2021/01/12 12:41:35;;;;;;;50.72;24.70;;;;;;;;;;5033067;28;20457;-69
2021/01/12 12:44:00;;;;;;;53.65;24.30;;;;;;;;;;5027590;28;20591;-69
2021/01/12 12:46:27;;;;;;;50.72;24.10;;;;;;;;;;5051731;28;20057;-67
2021/01/12 12:48:52;;;;;;;53.50;25.15;;;;;;;;;;5030116;28;20049;-67
2021/01/12 12:51:18;;;;;;;52.55;25.75;;;;;;;;;;5032800;28;20423;-69
2021/01/12 12:53:45;;;;;;;52.17;24.92;;;;;;;;;;5022611;28;20160;-67
2021/01/12 12:56:12;;;;;;;51.65;24.17;;;;;;;;;;5030465;28;20036;-74
2021/01/12 12:58:37;;;;;;;49.38;24.33;;;;;;;;;;5012918;28;20435;-69
2021/01/12 13:01:03;;;;;;;45.63;21.20;;;;;;;;;;5040486;28;20155;-73
2021/01/12 13:03:32;;;;;;;52.85;24.10;;;;;;;;;;5049538;28;20094;-75
2021/01/12 13:06:01;;;;;;;57.13;28.15;;;;;;;;;;5042344;28;20067;-72
2021/01/12 13:08:28;;;;;;;60.55;27.00;;;;;;;;;;5040919;28;20022;-73
2021/01/12 13:10:53;;;;;;;59.95;26.80;;;;;;;;;;5033090;28;20028;-69
2021/01/12 13:13:19;;;;;;;59.13;26.60;;;;;;;;;;5049660;28;20013;-73
2021/01/12 13:15:46;;;;;;;56.78;27.40;;;;;;;;;;5022485;28;20026;-73
2021/01/12 13:18:12;;;;;;;63.63;28.25;;;;;;;;;;5041881;28;20492;-73
2021/01/12 13:20:38;;;;;;;61.38;29.15;;;;;;;;;;5038514;28;20017;-72
2021/01/12 13:23:04;;;;;;;57.63;27.58;;;;;;;;;;5068031;28;20469;-70
2021/01/12 13:25:30;;;;;;;62.40;27.17;;;;;;;;;;5044625;28;20038;-69
2021/01/12 13:27:56;;;;;;;64.40;27.88;;;;;;;;;;5026641;28;20428;-71
2021/01/12 13:30:21;;;;;;;51.33;24.65;;;;;;;;;;5047099;28;20034;-68
2021/01/12 13:32:48;;;;;;;62.65;27.88;;;;;;;;;;5039170;28;20032;-69
2021/01/12 13:35:14;;;;;;;60.22;26.85;;;;;;;;;;5049494;28;20039;-69
2021/01/12 13:37:40;;;;;;;59.15;25.77;;;;;;;;;;5032025;28;20452;-69
2021/01/12 13:40:06;;;;;;;58.97;25.90;;;;;;;;;;5049575;28;20057;-70
2021/01/12 13:42:31;;;;;;;60.22;27.00;;;;;;;;;;5044597;28;20037;-70
2021/01/12 13:44:57;;;;;;;59.28;25.52;;;;;;;;;;5064125;28;20291;-70
2021/01/12 13:47:24;;;;;;;62.20;26.75;;;;;;;;;;5033563;28;20504;-75
2021/01/12 13:49:50;;;;;;;61.20;26.60;;;;;;;;;;5046345;28;20072;-75
2021/01/12 13:52:17;;;;;;;64.18;27.35;;;;;;;;;;5035329;28;20017;-72
2021/01/12 13:54:43;;;;;;;59.17;25.65;;;;;;;;;;5046361;28;20140;-70
2021/01/12 13:57:10;;;;;;;58.45;26.08;;;;;;;;;;5050396;28;20465;-70
2021/01/12 13:59:41;;;;;;;60.50;27.98;;;;;;;;;;5043503;28;20013;-70
2021/01/12 14:02:09;;;;;;;62.60;26.05;;;;;;;;;;5036162;28;20066;-69
2021/01/12 14:04:42;;;;;;;61.17;26.30;;;;;;;;;;5061535;28;20470;-71
2021/01/12 14:07:08;;;;;;;57.78;26.20;;;;;;;;;;5037210;28;20048;-70
2021/01/12 14:09:33;;;;;;;66.25;26.60;;;;;;;;;;5055394;28;20465;-69
2021/01/12 14:11:59;;;;;;;83.85;27.90;;;;;;;;;;5039187;28;20389;-69
2021/01/12 14:14:25;;;;;;;68.57;28.70;;;;;;;;;;5038405;28;20025;-76
2021/01/12 14:16:55;;;;;;;72.20;29.60;;;;;;;;;;5036315;28;20026;-74
2021/01/12 14:19:22;;;;;;;68.40;30.73;;;;;;;;;;5045601;28;20028;-73
2021/01/12 14:21:48;;;;;;;65.95;29.02;;;;;;;;;;5043597;28;20092;-72
2021/01/12 14:24:13;;;;;;;64.47;27.17;;;;;;;;;;5042465;28;20029;-70
2021/01/12 14:26:39;;;;;;;72.70;29.55;;;;;;;;;;5057627;28;20799;-72
2021/01/12 14:29:05;;;;;;;69.32;30.33;;;;;;;;;;5038540;28;20123;-67
2021/01/12 14:31:31;;;;;;;70.35;30.05;;;;;;;;;;5042118;28;20017;-68
2021/01/12 14:33:56;;;;;;;74.82;28.73;;;;;;;;;;5044177;28;20014;-68
2021/01/12 14:36:26;;;;;;;63.95;28.10;;;;;;;;;;5037688;28;20113;-69
2021/01/12 14:38:51;;;;;;;;;;;;;;;;;;5030617;28;20094;-68
2021/01/12 14:41:17;;;;;;;71.28;29.52;;;;;;;;;;5033730;28;20384;-72
2021/01/12 14:43:42;;;;;;;70.05;28.83;;;;;;;;;;5029530;28;20016;-71
2021/01/12 14:46:08;;;;;;;67.63;29.02;;;;;;;;;;5047901;28;20041;-69
2021/01/12 14:48:33;;;;;;;74.72;29.15;;;;;;;;;;5026725;28;20163;-68
2021/01/12 14:50:59;;;;;;;71.03;30.45;;;;;;;;;;5035989;28;20506;-68
2021/01/12 14:53:24;;;;;;;78.35;29.38;;;;;;;;;;5031125;28;20025;-65
2021/01/12 14:55:50;;;;;;;68.43;29.05;;;;;;;;;;5022780;28;20024;-66
2021/01/12 14:58:15;;;;;;;64.28;28.55;;;;;;;;;;5028597;28;20494;-67
2021/01/12 15:00:40;;;;;;;74.53;30.70;;;;;;;;;;5042571;28;20104;-67
2021/01/12 15:03:06;;;;;;;78.10;31.55;;;;;;;;;;5034677;28;20013;-70
2021/01/12 15:05:31;;;;;;;74.13;31.80;;;;;;;;;;5029685;28;20025;-67
2021/01/12 15:07:57;;;;;;;74.80;31.42;;;;;;;;;;5031379;28;20146;-66
2021/01/12 15:10:22;;;;;;;80.82;31.60;;;;;;;;;;5035175;28;20030;-68
2021/01/12 15:12:48;;;;;;;70.15;31.27;;;;;;;;;;5027581;28;20025;-67
2021/01/12 15:15:14;;;;;;;77.85;32.50;;;;;;;;;;5025903;28;20034;-67
2021/01/12 15:17:40;;;;;;;79.95;31.45;;;;;;;;;;5030795;28;20028;-67
2021/01/12 15:20:06;;;;;;;87.18;31.58;;;;;;;;;;5042080;28;20022;-67
2021/01/12 15:22:31;;;;;;;74.95;31.90;;;;;;;;;;5039680;28;20039;-66
2021/01/12 15:24:57;;;;;;;85.63;33.20;;;;;;;;;;5031415;28;20037;-67
2021/01/12 15:32:15;;;;;;;82.22;32.08;;;;;;;;;;5092933;27;1099700;-68
2021/01/12 15:34:40;;;;;;;86.03;35.38;;;;;;;;;;5090474;28;20019;-68
2021/01/12 15:37:07;;;;;;;82.95;34.35;;;;;;;;;;5110183;28;20542;-68
2021/01/12 15:39:33;;;;;;;85.55;34.10;;;;;;;;;;5074928;28;20035;-67
2021/01/12 15:41:59;;;;;;;81.90;33.55;;;;;;;;;;5091952;28;20012;-67
2021/01/12 15:44:25;;;;;;;87.82;34.35;;;;;;;;;;5092034;28;20068;-66
2021/01/12 15:46:51;;;;;;;98.13;38.60;;;;;;;;;;5110075;28;20103;-67
2021/01/12 15:49:17;;;;;;;96.78;36.15;;;;;;;;;;5109436;28;20027;-67
2021/01/12 15:51:42;;;;;;;95.57;36.58;;;;;;;;;;5110217;28;20056;-67
2021/01/12 15:54:08;;;;;;;87.57;34.80;;;;;;;;;;5091576;28;20011;-67
2021/01/12 15:56:33;;;;;;;82.15;34.50;;;;;;;;;;5109687;28;20019;-67
2021/01/12 15:58:59;;;;;;;87.93;35.78;;;;;;;;;;5110154;28;20023;-67
2021/01/12 16:01:25;;;;;;;88.93;35.47;;;;;;;;;;5110078;28;20020;-67
2021/01/12 16:03:51;;;;;;;97.93;38.55;;;;;;;;;;5092017;28;20015;-67
2021/01/12 16:06:17;;;;;;;92.68;38.47;;;;;;;;;;5109522;28;20375;-67
2021/01/12 16:08:43;;;;;;;106.22;39.95;;;;;;;;;;5091038;28;20027;-67
2021/01/12 16:11:09;;;;;;;121.28;44.83;;;;;;;;;;5109270;28;20532;-67
2021/01/12 16:13:35;;;;;;;116.13;41.67;;;;;;;;;;5109866;28;20026;-67
2021/01/12 16:16:00;;;;;;;109.85;41.45;;;;;;;;;;5083153;28;20104;-67
2021/01/12 16:18:26;;;;;;;124.20;46.60;;;;;;;;;;5088155;28;20040;-67
2021/01/12 16:20:52;;;;;;;118.28;46.22;;;;;;;;;;5070871;28;20016;-67
2021/01/12 16:23:20;;;;;;;133.00;49.90;;;;;;;;;;5088756;28;20078;-67
2021/01/12 16:25:47;;;;;;;99.28;41.45;;;;;;;;;;5089098;28;20100;-67
2021/01/12 16:28:13;;;;;;;129.35;51.55;;;;;;;;;;5088874;28;20063;-67
2021/01/12 16:30:38;;;;;;;126.07;51.42;;;;;;;;;;5050143;28;20080;-67
2021/01/12 16:33:04;;;;;;;133.70;52.53;;;;;;;;;;5068365;28;20094;-67
2021/01/12 16:35:30;;;;;;;141.07;56.30;;;;;;;;;;5067146;28;20020;-67
2021/01/12 16:37:59;;;;;;;137.10;56.13;;;;;;;;;;5066913;28;20021;-67
2021/01/12 16:40:24;;;;;;;146.57;53.67;;;;;;;;;;5067997;28;20029;-67
2021/01/12 16:42:52;;;;;;;154.23;59.78;;;;;;;;;;5058555;28;20427;-67
2021/01/12 16:45:20;;;;;;;159.05;56.08;;;;;;;;;;5055291;28;20033;-67
2021/01/12 16:47:46;;;;;;;148.43;57.22;;;;;;;;;;5055356;28;20051;-67
2021/01/12 16:50:12;;;;;;;160.05;60.88;;;;;;;;;;5053166;28;20473;-67
2021/01/12 16:52:39;;;;;;;175.43;65.43;;;;;;;;;;5054654;28;20452;-67
2021/01/12 16:55:08;;;;;;;194.95;73.03;;;;;;;;;;5053916;28;20036;-67
2021/01/12 16:57:34;;;;;;;173.38;66.97;;;;;;;;;;5055255;28;20017;-67
2021/01/12 17:00:00;;;;;;;172.57;66.15;;;;;;;;;;5053884;28;20025;-67
2021/01/12 17:02:29;;;;;;;189.40;70.13;;;;;;;;;;5055153;28;20025;-66
2021/01/12 17:04:54;;;;;;;166.43;67.47;;;;;;;;;;5054716;28;20557;-67
2021/01/12 17:07:22;;;;;;;149.85;56.75;;;;;;;;;;5054482;28;20095;-67
2021/01/12 17:09:51;;;;;;;150.13;57.90;;;;;;;;;;5054628;28;20063;-67
2021/01/12 17:12:17;;;;;;;177.82;63.80;;;;;;;;;;5054705;28;20044;-67
2021/01/12 17:14:43;;;;;;;157.55;62.05;;;;;;;;;;5054661;28;20032;-67
2021/01/12 17:17:11;;;;;;;174.13;64.85;;;;;;;;;;5054835;28;20079;-67
2021/01/12 17:19:37;;;;;;;185.03;71.23;;;;;;;;;;5053744;28;20104;-67
2021/01/12 17:22:05;;;;;;;188.95;75.95;;;;;;;;;;5054698;28;20061;-67
2021/01/12 17:24:31;;;;;;;155.80;61.35;;;;;;;;;;5054457;28;20021;-67
2021/01/12 17:26:57;;;;;;;188.15;68.63;;;;;;;;;;5053385;28;20098;-67
2021/01/12 17:29:27;;;;;;;203.77;70.50;;;;;;;;;;5054228;28;20423;-67
2021/01/12 17:32:05;;;;;;;209.52;74.28;;;;;;;;;;5068820;28;20106;-67
2021/01/12 17:34:30;;;;;;;179.05;69.95;;;;;;;;;;5074008;28;20408;-66
2021/01/12 17:36:57;;;;;;;196.07;74.65;;;;;;;;;;5056321;28;20041;-67
2021/01/12 17:39:26;;;;;;;201.23;75.63;;;;;;;;;;5039471;28;20016;-67
2021/01/12 17:41:51;;;;;;;186.52;70.20;;;;;;;;;;5056065;28;20495;-67
2021/01/12 17:44:17;;;;;;;183.82;71.18;;;;;;;;;;5056076;28;20036;-67
2021/01/12 17:46:44;;;;;;;204.32;78.35;;;;;;;;;;5055797;28;20103;-67
2021/01/12 17:49:11;;;;;;;208.38;82.22;;;;;;;;;;5073028;28;20016;-67
2021/01/12 17:51:42;;;;;;;221.85;82.30;;;;;;;;;;5056115;28;20060;-67
2021/01/12 17:54:09;;;;;;;207.10;76.68;;;;;;;;;;5073077;28;20062;-67
2021/01/12 17:56:35;;;;;;;204.45;76.60;;;;;;;;;;5073643;28;20095;-67
2021/01/12 17:59:02;;;;;;;209.85;77.70;;;;;;;;;;5055940;28;20546;-67
2021/01/12 18:01:27;;;;;;;267.63;107.05;;;;;;;;;;5073444;28;20029;-67
2021/01/12 18:03:54;;;;;;;260.80;97.13;;;;;;;;;;5039042;28;20012;-67
2021/01/12 18:06:23;;;;;;;274.20;99.43;;;;;;;;;;5073386;28;20020;-67
2021/01/12 18:08:52;;;;;;;211.00;83.68;;;;;;;;;;5056012;28;20099;-67
2021/01/12 18:11:18;;;;;;;184.90;74.38;;;;;;;;;;5073567;28;20032;-67
2021/01/12 18:13:44;;;;;;;187.85;70.35;;;;;;;;;;5073604;28;20526;-66
2021/01/12 18:16:10;;;;;;;177.70;67.80;;;;;;;;;;5073082;28;20043;-66
2021/01/12 18:18:35;;;;;;;173.55;67.13;;;;;;;;;;5072863;28;20044;-66
2021/01/12 18:21:01;;;;;;;168.65;66.22;;;;;;;;;;5073159;28;20358;-66
2021/01/12 18:23:28;;;;;;;158.98;60.22;;;;;;;;;;5073306;28;20028;-66
2021/01/12 18:25:57;;;;;;;154.73;61.17;;;;;;;;;;5073102;28;20142;-66
2021/01/12 18:28:24;;;;;;;146.83;56.57;;;;;;;;;;5073089;28;20073;-66
2021/01/12 18:30:49;;;;;;;154.23;56.80;;;;;;;;;;5072648;28;20041;-66
2021/01/12 18:33:15;;;;;;;128.05;50.10;;;;;;;;;;5073120;28;20020;-66
2021/01/12 18:35:41;;;;;;;140.90;54.00;;;;;;;;;;5072957;28;20024;-66
2021/01/12 18:38:09;;;;;;;141.15;54.55;;;;;;;;;;5073028;28;20389;-66
2021/01/12 18:40:35;;;;;;;139.40;51.13;;;;;;;;;;5072792;28;20005;-66
2021/01/12 18:43:00;;;;;;;137.55;51.70;;;;;;;;;;5055314;28;20028;-66
2021/01/12 18:45:26;;;;;;;150.30;54.58;;;;;;;;;;5054645;28;20020;-67
2021/01/12 18:48:01;;;;;;;136.07;53.35;;;;;;;;;;5073067;28;20401;-66
2021/01/12 18:50:28;;;;;;;150.73;58.15;;;;;;;;;;5072137;28;20056;-66
2021/01/12 18:52:55;;;;;;;142.52;54.10;;;;;;;;;;5072934;28;20055;-66
2021/01/12 18:55:22;;;;;;;137.65;51.85;;;;;;;;;;5072784;28;20123;-66
2021/01/12 18:57:50;;;;;;;137.15;53.75;;;;;;;;;;5055076;28;20012;-67
2021/01/12 19:00:16;;;;;;;132.00;51.08;;;;;;;;;;5072423;28;20020;-67
2021/01/12 19:02:42;;;;;;;135.70;50.70;;;;;;;;;;5054634;28;20377;-66
2021/01/12 19:05:08;;;;;;;132.13;48.95;;;;;;;;;;5072182;28;20028;-67
2021/01/12 19:07:33;;;;;;;132.32;49.50;;;;;;;;;;5072582;28;20404;-66
2021/01/12 19:09:59;;;;;;;112.57;46.53;;;;;;;;;;5072870;28;20025;-66
2021/01/12 19:12:27;;;;;;;126.30;49.13;;;;;;;;;;5037682;28;20043;-66
2021/01/12 19:14:53;;;;;;;120.65;50.10;;;;;;;;;;5072632;28;20028;-66
2021/01/12 19:17:20;;;;;;;119.93;45.97;;;;;;;;;;5072467;28;20364;-66
2021/01/12 19:19:46;;;;;;;113.13;43.35;;;;;;;;;;5072014;28;20102;-66
2021/01/12 19:22:13;;;;;;;116.90;45.45;;;;;;;;;;5072322;28;20415;-67
2021/01/12 19:24:39;;;;;;;113.60;43.00;;;;;;;;;;5054868;28;20469;-66
2021/01/12 19:27:06;;;;;;;115.00;45.25;;;;;;;;;;5072350;28;20103;-66
2021/01/12 19:29:31;;;;;;;103.18;41.60;;;;;;;;;;5054433;28;20475;-66
2021/01/12 19:31:58;;;;;;;105.00;40.28;;;;;;;;;;5054353;28;20102;-66
2021/01/12 19:34:24;;;;;;;103.53;41.63;;;;;;;;;;5054382;28;20026;-66
2021/01/12 19:36:54;;;;;;;104.72;40.22;;;;;;;;;;5037852;28;20044;-66
2021/01/12 19:39:20;;;;;;;98.20;38.58;;;;;;;;;;5054233;28;20017;-67
2021/01/12 19:41:49;;;;;;;103.63;40.90;;;;;;;;;;5054422;28;20544;-66
2021/01/12 19:44:17;;;;;;;104.05;41.20;;;;;;;;;;5054126;28;20036;-66
2021/01/12 19:46:43;;;;;;;104.10;41.80;;;;;;;;;;5072229;28;20032;-66
2021/01/12 19:49:08;;;;;;;102.22;39.83;;;;;;;;;;5053511;28;20020;-67
2021/01/12 19:51:34;;;;;;;99.95;39.40;;;;;;;;;;5054347;28;20085;-66
2021/01/12 19:54:03;;;;;;;98.55;39.92;;;;;;;;;;5054602;28;20025;-66
2021/01/12 19:56:28;;;;;;;94.55;37.97;;;;;;;;;;5053860;28;20032;-67
2021/01/12 19:58:54;;;;;;;99.18;37.92;;;;;;;;;;5072374;28;20029;-67
2021/01/12 20:01:21;;;;;;;102.63;39.08;;;;;;;;;;5037411;28;20384;-67
2021/01/12 20:03:49;;;;;;;111.00;41.83;;;;;;;;;;5072438;28;20024;-67
2021/01/12 20:06:14;;;;;;;109.82;41.17;;;;;;;;;;5054357;28;20019;-67
2021/01/12 20:08:40;;;;;;;102.00;38.22;;;;;;;;;;5054240;28;20385;-67
2021/01/12 20:11:06;;;;;;;103.85;40.63;;;;;;;;;;5072006;28;20047;-67
2021/01/12 20:13:31;;;;;;;102.00;38.65;;;;;;;;;;5072546;28;20433;-67
2021/01/12 20:15:57;;;;;;;105.15;39.90;;;;;;;;;;5071612;28;20512;-67
2021/01/12 20:18:24;;;;;;;100.05;38.25;;;;;;;;;;5073814;28;20019;-66
2021/01/12 20:20:54;;;;;;;95.57;39.83;;;;;;;;;;5058351;28;20128;-67
2021/01/12 20:23:21;;;;;;;;;;;;;;;;;;5076257;28;20047;-67
2021/01/12 20:25:49;;;;;;;107.25;40.13;;;;;;;;;;5075812;28;20448;-66
2021/01/12 20:28:15;;;;;;;95.93;36.60;;;;;;;;;;5057607;28;20492;-67
2021/01/12 20:30:41;;;;;;;98.68;39.30;;;;;;;;;;5053917;28;20045;-67
2021/01/12 20:33:08;;;;;;;99.63;40.22;;;;;;;;;;5054346;28;20474;-67
2021/01/12 20:35:36;;;;;;;110.80;43.25;;;;;;;;;;5055571;28;20351;-67
2021/01/12 20:38:02;;;;;;;98.53;41.17;;;;;;;;;;5055520;28;20021;-67
2021/01/12 20:40:27;;;;;;;113.47;45.05;;;;;;;;;;5037096;28;20032;-67
2021/01/12 20:42:54;;;;;;;109.32;40.60;;;;;;;;;;5055469;28;20071;-66
2021/01/12 20:45:20;;;;;;;112.40;43.75;;;;;;;;;;5054238;28;20035;-67
2021/01/12 20:47:45;;;;;;;120.68;45.70;;;;;;;;;;5055326;28;20104;-67
2021/01/12 20:50:11;;;;;;;120.68;45.92;;;;;;;;;;5053378;28;20021;-67
2021/01/12 20:52:39;;;;;;;121.35;50.35;;;;;;;;;;5054961;28;20067;-66
2021/01/12 20:55:05;;;;;;;122.15;49.30;;;;;;;;;;5054868;28;20021;-67
2021/01/12 20:57:31;;;;;;;114.35;46.42;;;;;;;;;;5053980;28;20017;-67
2021/01/12 20:59:56;;;;;;;123.25;48.30;;;;;;;;;;5037433;28;20098;-67
2021/01/12 21:02:22;;;;;;;122.28;49.25;;;;;;;;;;5054840;28;20440;-67
2021/01/12 21:04:47;;;;;;;117.60;47.60;;;;;;;;;;5053791;28;20021;-67
2021/01/12 21:07:12;;;;;;;113.97;46.40;;;;;;;;;;5054788;28;20048;-67
2021/01/12 21:09:40;;;;;;;133.00;50.00;;;;;;;;;;5054663;28;20461;-67
2021/01/12 21:12:06;;;;;;;130.20;49.85;;;;;;;;;;5054862;28;20028;-66
2021/01/12 21:14:31;;;;;;;122.13;47.95;;;;;;;;;;5053222;28;20028;-67
2021/01/12 21:16:57;;;;;;;128.15;50.55;;;;;;;;;;5054301;28;20377;-67
2021/01/12 21:19:22;;;;;;;139.95;54.03;;;;;;;;;;5054239;28;20136;-67